Aviation Digital Data Service (ADDS)

Output produced by METARs form (1836 UTC 18 April 2019)
found at http://www.aviationweather.gov/metar/data/
 
METAR text: UKOO 181830Z 00000MPS CAVOK 07/02 Q1025 R16/090060 NOSIG
Conditions at: UKOO (ODESSA/TSENTRALN, UA) observed 1830 UTC 18 April 2019
Temperature: 7.0°C (45°F)
Dewpoint: 2.0°C (36°F) [RH = 70%]
Pressure (altimeter): 30.27 inches Hg (1025.0 mb)
Winds: calm
Visibility: 6 or more miles (10+ km)
Ceiling: ceiling and visibility are OK
Clouds: unknown
Weather: no significant weather observed at this time

METAR text: UKOO 181800Z 08001MPS CAVOK 08/02 Q1025 R16/090060 NOSIG
Conditions at: UKOO (ODESSA/TSENTRALN, UA) observed 1800 UTC 18 April 2019
Temperature: 8.0°C (46°F)
Dewpoint: 2.0°C (36°F) [RH = 66%]
Pressure (altimeter): 30.27 inches Hg (1025.0 mb)
Winds: from the E (80 degrees) at 2 MPH (2 knots; 1.0 m/s)
Visibility: 6 or more miles (10+ km)
Ceiling: ceiling and visibility are OK
Clouds: unknown
Weather: no significant weather observed at this time

METAR text: UKOO 181730Z 07002MPS CAVOK 08/02 Q1025 R16/090060 NOSIG
Conditions at: UKOO (ODESSA/TSENTRALN, UA) observed 1730 UTC 18 April 2019
Temperature: 8.0°C (46°F)
Dewpoint: 2.0°C (36°F) [RH = 66%]
Pressure (altimeter): 30.27 inches Hg (1025.0 mb)
Winds: from the ENE (70 degrees) at 5 MPH (4 knots; 2.1 m/s)
Visibility: 6 or more miles (10+ km)
Ceiling: ceiling and visibility are OK
Clouds: unknown
Weather: no significant weather observed at this time

METAR text: UKOO 181700Z 07002MPS CAVOK 08/01 Q1025 R16/090060 NOSIG
Conditions at: UKOO (ODESSA/TSENTRALN, UA) observed 1700 UTC 18 April 2019
Temperature: 8.0°C (46°F)
Dewpoint: 1.0°C (34°F) [RH = 61%]
Pressure (altimeter): 30.27 inches Hg (1025.0 mb)
Winds: from the ENE (70 degrees) at 5 MPH (4 knots; 2.1 m/s)
Visibility: 6 or more miles (10+ km)
Ceiling: ceiling and visibility are OK
Clouds: unknown
Weather: no significant weather observed at this time

METAR text: UKOO 181630Z 09003MPS CAVOK 09/01 Q1024 R16/090060 NOSIG
Conditions at: UKOO (ODESSA/TSENTRALN, UA) observed 1630 UTC 18 April 2019
Temperature: 9.0°C (48°F)
Dewpoint: 1.0°C (34°F) [RH = 57%]
Pressure (altimeter): 30.24 inches Hg (1024.0 mb)
Winds: from the E (90 degrees) at 7 MPH (6 knots; 3.1 m/s)
Visibility: 6 or more miles (10+ km)
Ceiling: ceiling and visibility are OK
Clouds: unknown
Weather: no significant weather observed at this time

METAR text: UKOO 181600Z 06003MPS 020V100 CAVOK 11/01 Q1024 R16/090060 NOSIG
Conditions at: UKOO (ODESSA/TSENTRALN, UA) observed 1600 UTC 18 April 2019
Temperature: 11.0°C (52°F)
Dewpoint: 1.0°C (34°F) [RH = 50%]
Pressure (altimeter): 30.24 inches Hg (1024.0 mb)
Winds: from the ENE (60 degrees) at 7 MPH (6 knots; 3.1 m/s)
Visibility: 6 or more miles (10+ km)
Ceiling: ceiling and visibility are OK
Clouds: unknown
Weather: no significant weather observed at this time

METAR text: UKOO 181530Z 08003MPS 050V120 CAVOK 11/01 Q1024 R16/090060 NOSIG
Conditions at: UKOO (ODESSA/TSENTRALN, UA) observed 1530 UTC 18 April 2019
Temperature: 11.0°C (52°F)
Dewpoint: 1.0°C (34°F) [RH = 50%]
Pressure (altimeter): 30.24 inches Hg (1024.0 mb)
Winds: from the E (80 degrees) at 7 MPH (6 knots; 3.1 m/s)
Visibility: 6 or more miles (10+ km)
Ceiling: ceiling and visibility are OK
Clouds: unknown
Weather: no significant weather observed at this time

METAR text: UKOO 181500Z 08004MPS CAVOK 11/M00 Q1024 R16/090060 NOSIG
Conditions at: UKOO (ODESSA/TSENTRALN, UA) observed 1500 UTC 18 April 2019
Temperature: 11.0°C (52°F)
Dewpoint: 0.0°C (32°F) [RH = 47%]
Pressure (altimeter): 30.24 inches Hg (1024.0 mb)
Winds: from the E (80 degrees) at 9 MPH (8 knots; 4.1 m/s)
Visibility: 6 or more miles (10+ km)
Ceiling: ceiling and visibility are OK
Clouds: unknown
Weather: no significant weather observed at this time

METAR text: UKOO 181430Z 07004MPS 030V110 CAVOK 12/00 Q1024 R34/090060 NOSIG
Conditions at: UKOO (ODESSA/TSENTRALN, UA) observed 1430 UTC 18 April 2019
Temperature: 12.0°C (54°F)
Dewpoint: 0.0°C (32°F) [RH = 44%]
Pressure (altimeter): 30.24 inches Hg (1024.0 mb)
Winds: from the ENE (70 degrees) at 9 MPH (8 knots; 4.1 m/s)
Visibility: 6 or more miles (10+ km)
Ceiling: ceiling and visibility are OK
Clouds: unknown
Weather: no significant weather observed at this time

METAR text: UKOO 181400Z 07004MPS 040V110 CAVOK 12/01 Q1024 R34/090060 NOSIG
Conditions at: UKOO (ODESSA/TSENTRALN, UA) observed 1400 UTC 18 April 2019
Temperature: 12.0°C (54°F)
Dewpoint: 1.0°C (34°F) [RH = 47%]
Pressure (altimeter): 30.24 inches Hg (1024.0 mb)
Winds: from the ENE (70 degrees) at 9 MPH (8 knots; 4.1 m/s)
Visibility: 6 or more miles (10+ km)
Ceiling: ceiling and visibility are OK
Clouds: unknown
Weather: no significant weather observed at this time

METAR text: UKOO 181330Z 06004MPS 310V110 CAVOK 12/01 Q1025 R34/090060 NOSIG
Conditions at: UKOO (ODESSA/TSENTRALN, UA) observed 1330 UTC 18 April 2019
Temperature: 12.0°C (54°F)
Dewpoint: 1.0°C (34°F) [RH = 47%]
Pressure (altimeter): 30.27 inches Hg (1025.0 mb)
Winds: from the ENE (60 degrees) at 9 MPH (8 knots; 4.1 m/s)
Visibility: 6 or more miles (10+ km)
Ceiling: ceiling and visibility are OK
Clouds: unknown
Weather: no significant weather observed at this time

METAR text: UKOO 181300Z 07006MPS 020V110 CAVOK 12/00 Q1025 R34/090060 NOSIG
Conditions at: UKOO (ODESSA/TSENTRALN, UA) observed 1300 UTC 18 April 2019
Temperature: 12.0°C (54°F)
Dewpoint: 0.0°C (32°F) [RH = 44%]
Pressure (altimeter): 30.27 inches Hg (1025.0 mb)
Winds: from the ENE (70 degrees) at 14 MPH (12 knots; 6.2 m/s)
Visibility: 6 or more miles (10+ km)
Ceiling: ceiling and visibility are OK
Clouds: unknown
Weather: no significant weather observed at this time

METAR text: UKOO 181230Z 06006MPS 030V090 CAVOK 12/01 Q1025 R34/090060 NOSIG
Conditions at: UKOO (ODESSA/TSENTRALN, UA) observed 1230 UTC 18 April 2019
Temperature: 12.0°C (54°F)
Dewpoint: 1.0°C (34°F) [RH = 47%]
Pressure (altimeter): 30.27 inches Hg (1025.0 mb)
Winds: from the ENE (60 degrees) at 14 MPH (12 knots; 6.2 m/s)
Visibility: 6 or more miles (10+ km)
Ceiling: ceiling and visibility are OK
Clouds: unknown
Weather: no significant weather observed at this time

METAR text: UKOO 181200Z 05007MPS 020V090 CAVOK 12/01 Q1025 R34/090060 NOSIG
Conditions at: UKOO (ODESSA/TSENTRALN, UA) observed 1200 UTC 18 April 2019
Temperature: 12.0°C (54°F)
Dewpoint: 1.0°C (34°F) [RH = 47%]
Pressure (altimeter): 30.27 inches Hg (1025.0 mb)
Winds: from the NE (50 degrees) at 16 MPH (14 knots; 7.2 m/s)
Visibility: 6 or more miles (10+ km)
Ceiling: ceiling and visibility are OK
Clouds: unknown
Weather: no significant weather observed at this time

METAR text: UKOO 181130Z 07007MPS 040V100 CAVOK 11/01 Q1025 R34/090060 NOSIG
Conditions at: UKOO (ODESSA/TSENTRALN, UA) observed 1130 UTC 18 April 2019
Temperature: 11.0°C (52°F)
Dewpoint: 1.0°C (34°F) [RH = 50%]
Pressure (altimeter): 30.27 inches Hg (1025.0 mb)
Winds: from the ENE (70 degrees) at 16 MPH (14 knots; 7.2 m/s)
Visibility: 6 or more miles (10+ km)
Ceiling: ceiling and visibility are OK
Clouds: unknown
Weather: no significant weather observed at this time

METAR text: UKOO 181100Z 06007MPS 020V100 CAVOK 11/03 Q1025 R34/090060 NOSIG
Conditions at: UKOO (ODESSA/TSENTRALN, UA) observed 1100 UTC 18 April 2019
Temperature: 11.0°C (52°F)
Dewpoint: 3.0°C (37°F) [RH = 58%]
Pressure (altimeter): 30.27 inches Hg (1025.0 mb)
Winds: from the ENE (60 degrees) at 16 MPH (14 knots; 7.2 m/s)
Visibility: 6 or more miles (10+ km)
Ceiling: ceiling and visibility are OK
Clouds: unknown
Weather: no significant weather observed at this time

METAR text: UKOO 181030Z 05008MPS 010V080 9999 SCT043 11/01 Q1026 R34/090060 NOSIG
Conditions at: UKOO (ODESSA/TSENTRALN, UA) observed 1030 UTC 18 April 2019
Temperature: 11.0°C (52°F)
Dewpoint: 1.0°C (34°F) [RH = 50%]
Pressure (altimeter): 30.30 inches Hg (1026.0 mb)
Winds: from the NE (50 degrees) at 18 MPH (16 knots; 8.2 m/s)
Visibility: 6 or more miles (10+ km)
Ceiling: at least 12,000 feet AGL
Clouds: scattered clouds at 4300 feet AGL
Weather: no significant weather observed at this time

METAR text: UKOO 181000Z 05007MPS 020V080 9999 BKN043 11/03 Q1026 R34/090060 NOSIG
Conditions at: UKOO (ODESSA/TSENTRALN, UA) observed 1000 UTC 18 April 2019
Temperature: 11.0°C (52°F)
Dewpoint: 3.0°C (37°F) [RH = 58%]
Pressure (altimeter): 30.30 inches Hg (1026.0 mb)
Winds: from the NE (50 degrees) at 16 MPH (14 knots; 7.2 m/s)
Visibility: 6 or more miles (10+ km)
Ceiling: 4300 feet AGL
Clouds: broken clouds at 4300 feet AGL
Weather: no significant weather observed at this time

METAR text: UKOO 180930Z 06007MPS 9999 FEW025 SCT040 10/03 Q1026 R34/090060 NOSIG
Conditions at: UKOO (ODESSA/TSENTRALN, UA) observed 0930 UTC 18 April 2019
Temperature: 10.0°C (50°F)
Dewpoint: 3.0°C (37°F) [RH = 62%]
Pressure (altimeter): 30.30 inches Hg (1026.0 mb)
Winds: from the ENE (60 degrees) at 16 MPH (14 knots; 7.2 m/s)
Visibility: 6 or more miles (10+ km)
Ceiling: at least 12,000 feet AGL
Clouds: few clouds at 2500 feet AGL
scattered clouds at 4000 feet AGL
Weather: no significant weather observed at this time

METAR text: UKOO 180900Z 07006MPS 9999 FEW023 SCT036 09/04 Q1026 R34/090060 NOSIG
Conditions at: UKOO (ODESSA/TSENTRALN, UA) observed 0900 UTC 18 April 2019
Temperature: 9.0°C (48°F)
Dewpoint: 4.0°C (39°F) [RH = 71%]
Pressure (altimeter): 30.30 inches Hg (1026.0 mb)
Winds: from the ENE (70 degrees) at 14 MPH (12 knots; 6.2 m/s)
Visibility: 6 or more miles (10+ km)
Ceiling: at least 12,000 feet AGL
Clouds: few clouds at 2300 feet AGL
scattered clouds at 3600 feet AGL
Weather: no significant weather observed at this time

METAR text: UKOO 180830Z 05006MPS 020V090 9999 FEW021 SCT032 10/05 Q1026 R34/090060 NOSIG
Conditions at: UKOO (ODESSA/TSENTRALN, UA) observed 0830 UTC 18 April 2019
Temperature: 10.0°C (50°F)
Dewpoint: 5.0°C (41°F) [RH = 71%]
Pressure (altimeter): 30.30 inches Hg (1026.0 mb)
Winds: from the NE (50 degrees) at 14 MPH (12 knots; 6.2 m/s)
Visibility: 6 or more miles (10+ km)
Ceiling: at least 12,000 feet AGL
Clouds: few clouds at 2100 feet AGL
scattered clouds at 3200 feet AGL
Weather: no significant weather observed at this time

METAR text: UKOO 180800Z 06006MPS 9999 FEW019 SCT028 10/06 Q1026 R34/290054 NOSIG
Conditions at: UKOO (ODESSA/TSENTRALN, UA) observed 0800 UTC 18 April 2019
Temperature: 10.0°C (50°F)
Dewpoint: 6.0°C (43°F) [RH = 76%]
Pressure (altimeter): 30.30 inches Hg (1026.0 mb)
Winds: from the ENE (60 degrees) at 14 MPH (12 knots; 6.2 m/s)
Visibility: 6 or more miles (10+ km)
Ceiling: at least 12,000 feet AGL
Clouds: few clouds at 1900 feet AGL
scattered clouds at 2800 feet AGL
Weather: no significant weather observed at this time

METAR text: UKOO 180730Z 04007MPS 010V070 9999 FEW018 SCT024 10/06 Q1026 R34/290054 NOSIG
Conditions at: UKOO (ODESSA/TSENTRALN, UA) observed 0730 UTC 18 April 2019
Temperature: 10.0°C (50°F)
Dewpoint: 6.0°C (43°F) [RH = 76%]
Pressure (altimeter): 30.30 inches Hg (1026.0 mb)
Winds: from the NE (40 degrees) at 16 MPH (14 knots; 7.2 m/s)
Visibility: 6 or more miles (10+ km)
Ceiling: at least 12,000 feet AGL
Clouds: few clouds at 1800 feet AGL
scattered clouds at 2400 feet AGL
Weather: no significant weather observed at this time

METAR text: UKOO 180700Z 05007MPS 9999 SCT013 BKN019 08/06 Q1025 R34/290054 NOSIG
Conditions at: UKOO (ODESSA/TSENTRALN, UA) observed 0700 UTC 18 April 2019
Temperature: 8.0°C (46°F)
Dewpoint: 6.0°C (43°F) [RH = 87%]
Pressure (altimeter): 30.27 inches Hg (1025.0 mb)
Winds: from the NE (50 degrees) at 16 MPH (14 knots; 7.2 m/s)
Visibility: 6 or more miles (10+ km)
Ceiling: 1900 feet AGL
Clouds: scattered clouds at 1300 feet AGL
broken clouds at 1900 feet AGL
Weather: no significant weather observed at this time

METAR text: UKOO 180630Z 04006MPS 9999 OVC012 09/07 Q1025 R34/290054 NOSIG
Conditions at: UKOO (ODESSA/TSENTRALN, UA) observed 0630 UTC 18 April 2019
Temperature: 9.0°C (48°F)
Dewpoint: 7.0°C (45°F) [RH = 87%]
Pressure (altimeter): 30.27 inches Hg (1025.0 mb)
Winds: from the NE (40 degrees) at 14 MPH (12 knots; 6.2 m/s)
Visibility: 6 or more miles (10+ km)
Ceiling: 1200 feet AGL
Clouds: overcast cloud deck at 1200 feet AGL
Weather: no significant weather observed at this time

METAR text: UKOO 180600Z 03006MPS 360V060 9999 OVC010 08/07 Q1025 R34/290054 NOSIG
Conditions at: UKOO (ODESSA/TSENTRALN, UA) observed 0600 UTC 18 April 2019
Temperature: 8.0°C (46°F)
Dewpoint: 7.0°C (45°F) [RH = 93%]
Pressure (altimeter): 30.27 inches Hg (1025.0 mb)
Winds: from the NNE (30 degrees) at 14 MPH (12 knots; 6.2 m/s)
Visibility: 6 or more miles (10+ km)
Ceiling: 1000 feet AGL
Clouds: overcast cloud deck at 1000 feet AGL
Weather: no significant weather observed at this time

METAR text: UKOO 180530Z 02005MPS 9999 BKN011 09/07 Q1024 R34/290054 NOSIG
Conditions at: UKOO (ODESSA/TSENTRALN, UA) observed 0530 UTC 18 April 2019
Temperature: 9.0°C (48°F)
Dewpoint: 7.0°C (45°F) [RH = 87%]
Pressure (altimeter): 30.24 inches Hg (1024.0 mb)
Winds: from the NNE (20 degrees) at 12 MPH (10 knots; 5.1 m/s)
Visibility: 6 or more miles (10+ km)
Ceiling: 1100 feet AGL
Clouds: broken clouds at 1100 feet AGL
Weather: no significant weather observed at this time

METAR text: UKOO 180526Z 02005MPS 9999 BKN011 09/07 Q1024 R34/290054 NOSIG
Conditions at: UKOO (ODESSA/TSENTRALN, UA) observed 0526 UTC 18 April 2019
Temperature: 9.0°C (48°F)
Dewpoint: 7.0°C (45°F) [RH = 87%]
Pressure (altimeter): 30.24 inches Hg (1024.0 mb)
Winds: from the NNE (20 degrees) at 12 MPH (10 knots; 5.1 m/s)
Visibility: 6 or more miles (10+ km)
Ceiling: 1100 feet AGL
Clouds: broken clouds at 1100 feet AGL
Weather: no significant weather observed at this time

METAR text: UKOO 180500Z 02004MPS 9999 FEW010 BKN030 08/07 Q1024 R34/290054 NOSIG
Conditions at: UKOO (ODESSA/TSENTRALN, UA) observed 0500 UTC 18 April 2019
Temperature: 8.0°C (46°F)
Dewpoint: 7.0°C (45°F) [RH = 93%]
Pressure (altimeter): 30.24 inches Hg (1024.0 mb)
Winds: from the NNE (20 degrees) at 9 MPH (8 knots; 4.1 m/s)
Visibility: 6 or more miles (10+ km)
Ceiling: 3000 feet AGL
Clouds: few clouds at 1000 feet AGL
broken clouds at 3000 feet AGL
Weather: no significant weather observed at this time

METAR text: UKOO 180430Z 02004MPS 360V060 9999 BKN010 OVC028 08/07 Q1025 R34/290054 NOSIG
Conditions at: UKOO (ODESSA/TSENTRALN, UA) observed 0430 UTC 18 April 2019
Temperature: 8.0°C (46°F)
Dewpoint: 7.0°C (45°F) [RH = 93%]
Pressure (altimeter): 30.27 inches Hg (1025.0 mb)
Winds: from the NNE (20 degrees) at 9 MPH (8 knots; 4.1 m/s)
Visibility: 6 or more miles (10+ km)
Ceiling: 1000 feet AGL
Clouds: broken clouds at 1000 feet AGL
overcast cloud deck at 2800 feet AGL
Weather: no significant weather observed at this time

METAR text: UKOO 180424Z 03003MPS 9999 BKN011 OVC036 08/07 Q1025 R34/290054 NOSIG
Conditions at: UKOO (ODESSA/TSENTRALN, UA) observed 0424 UTC 18 April 2019
Temperature: 8.0°C (46°F)
Dewpoint: 7.0°C (45°F) [RH = 93%]
Pressure (altimeter): 30.27 inches Hg (1025.0 mb)
Winds: from the NNE (30 degrees) at 7 MPH (6 knots; 3.1 m/s)
Visibility: 6 or more miles (10+ km)
Ceiling: 1100 feet AGL
Clouds: broken clouds at 1100 feet AGL
overcast cloud deck at 3600 feet AGL
Weather: no significant weather observed at this time

METAR text: UKOO 180400Z 02003MPS 9999 BKN029 OVC046 07/07 Q1024 R34/290054 NOSIG
Conditions at: UKOO (ODESSA/TSENTRALN, UA) observed 0400 UTC 18 April 2019
Temperature: 7.0°C (45°F)
Dewpoint: 7.0°C (45°F) [RH = 100%]
Pressure (altimeter): 30.24 inches Hg (1024.0 mb)
Winds: from the NNE (20 degrees) at 7 MPH (6 knots; 3.1 m/s)
Visibility: 6 or more miles (10+ km)
Ceiling: 2900 feet AGL
Clouds: broken clouds at 2900 feet AGL
overcast cloud deck at 4600 feet AGL
Weather: no significant weather observed at this time

METAR text: UKOO 180330Z 03004MPS 9999 BKN018 OVC033 07/07 Q1024 R34/290054 NOSIG
Conditions at: UKOO (ODESSA/TSENTRALN, UA) observed 0330 UTC 18 April 2019
Temperature: 7.0°C (45°F)
Dewpoint: 7.0°C (45°F) [RH = 100%]
Pressure (altimeter): 30.24 inches Hg (1024.0 mb)
Winds: from the NNE (30 degrees) at 9 MPH (8 knots; 4.1 m/s)
Visibility: 6 or more miles (10+ km)
Ceiling: 1800 feet AGL
Clouds: broken clouds at 1800 feet AGL
overcast cloud deck at 3300 feet AGL
Weather: no significant weather observed at this time

METAR text: UKOO 180300Z 04004MPS 9999 BKN024 OVC033 07/07 Q1024 R34/290054 NOSIG
Conditions at: UKOO (ODESSA/TSENTRALN, UA) observed 0300 UTC 18 April 2019
Temperature: 7.0°C (45°F)
Dewpoint: 7.0°C (45°F) [RH = 100%]
Pressure (altimeter): 30.24 inches Hg (1024.0 mb)
Winds: from the NE (40 degrees) at 9 MPH (8 knots; 4.1 m/s)
Visibility: 6 or more miles (10+ km)
Ceiling: 2400 feet AGL
Clouds: broken clouds at 2400 feet AGL
overcast cloud deck at 3300 feet AGL
Weather: no significant weather observed at this time

METAR text: UKOO 180230Z 04004MPS 9999 OVC032 07/07 Q1023 R34/290054 NOSIG
Conditions at: UKOO (ODESSA/TSENTRALN, UA) observed 0230 UTC 18 April 2019
Temperature: 7.0°C (45°F)
Dewpoint: 7.0°C (45°F) [RH = 100%]
Pressure (altimeter): 30.21 inches Hg (1023.0 mb)
Winds: from the NE (40 degrees) at 9 MPH (8 knots; 4.1 m/s)
Visibility: 6 or more miles (10+ km)
Ceiling: 3200 feet AGL
Clouds: overcast cloud deck at 3200 feet AGL
Weather: no significant weather observed at this time

METAR text: UKOO 180200Z 04004MPS 9999 SCT010 BKN040 07/07 Q1023 R34/290054 NOSIG
Conditions at: UKOO (ODESSA/TSENTRALN, UA) observed 0200 UTC 18 April 2019
Temperature: 7.0°C (45°F)
Dewpoint: 7.0°C (45°F) [RH = 100%]
Pressure (altimeter): 30.21 inches Hg (1023.0 mb)
Winds: from the NE (40 degrees) at 9 MPH (8 knots; 4.1 m/s)
Visibility: 6 or more miles (10+ km)
Ceiling: 4000 feet AGL
Clouds: scattered clouds at 1000 feet AGL
broken clouds at 4000 feet AGL
Weather: no significant weather observed at this time

METAR text: UKOO 180130Z 04004MPS 9999 BKN009 BKN040 07/07 Q1023 R34/290054 NOSIG
Conditions at: UKOO (ODESSA/TSENTRALN, UA) observed 0130 UTC 18 April 2019
Temperature: 7.0°C (45°F)
Dewpoint: 7.0°C (45°F) [RH = 100%]
Pressure (altimeter): 30.21 inches Hg (1023.0 mb)
Winds: from the NE (40 degrees) at 9 MPH (8 knots; 4.1 m/s)
Visibility: 6 or more miles (10+ km)
Ceiling: 900 feet AGL
Clouds: broken clouds at 900 feet AGL
broken clouds at 4000 feet AGL
Weather: no significant weather observed at this time

METAR text: UKOO 180100Z 06004MPS 020V090 9999 -RA BKN009 OVC040 08/07 Q1023 R34/290054 NOSIG
Conditions at: UKOO (ODESSA/TSENTRALN, UA) observed 0100 UTC 18 April 2019
Temperature: 8.0°C (46°F)
Dewpoint: 7.0°C (45°F) [RH = 93%]
Pressure (altimeter): 30.21 inches Hg (1023.0 mb)
Winds: from the ENE (60 degrees) at 9 MPH (8 knots; 4.1 m/s)
Visibility: 6 or more miles (10+ km)
Ceiling: 900 feet AGL
Clouds: broken clouds at 900 feet AGL
overcast cloud deck at 4000 feet AGL
Weather: -RA  (light rain)

METAR text: UKOO 180030Z 07005MPS 9999 -SHRA SCT026CB OVC040 08/07 Q1023 R34/290054 NOSIG
Conditions at: UKOO (ODESSA/TSENTRALN, UA) observed 0030 UTC 18 April 2019
Temperature: 8.0°C (46°F)
Dewpoint: 7.0°C (45°F) [RH = 93%]
Pressure (altimeter): 30.21 inches Hg (1023.0 mb)
Winds: from the ENE (70 degrees) at 12 MPH (10 knots; 5.1 m/s)
Visibility: 6 or more miles (10+ km)
Ceiling: 4000 feet AGL
Clouds: scattered clouds at 2600 feet AGL
overcast cloud deck at 4000 feet AGL
Weather: -SHRA  (light rain showers)

METAR text: UKOO 180000Z 08005MPS 050V110 9999 -SHRA SCT024CB BKN043 08/07 Q1023 R34/290054 NOSIG
Conditions at: UKOO (ODESSA/TSENTRALN, UA) observed 0000 UTC 18 April 2019
Temperature: 8.0°C (46°F)
Dewpoint: 7.0°C (45°F) [RH = 93%]
Pressure (altimeter): 30.21 inches Hg (1023.0 mb)
Winds: from the E (80 degrees) at 12 MPH (10 knots; 5.1 m/s)
Visibility: 6 or more miles (10+ km)
Ceiling: 4300 feet AGL
Clouds: scattered clouds at 2400 feet AGL
broken clouds at 4300 feet AGL
Weather: -SHRA  (light rain showers)

METAR text: UKOO 172330Z 08006MPS 9999 -SHRA BKN007 BKN015CB 08/07 Q1023 R34/290054 NOSIG
Conditions at: UKOO (ODESSA/TSENTRALN, UA) observed 2330 UTC 17 April 2019
Temperature: 8.0°C (46°F)
Dewpoint: 7.0°C (45°F) [RH = 93%]
Pressure (altimeter): 30.21 inches Hg (1023.0 mb)
Winds: from the E (80 degrees) at 14 MPH (12 knots; 6.2 m/s)
Visibility: 6 or more miles (10+ km)
Ceiling: 700 feet AGL
Clouds: broken clouds at 700 feet AGL
broken clouds at 1500 feet AGL
Weather: -SHRA  (light rain showers)

METAR text: UKOO 172320Z 08007MPS 9999 -SHRA BKN006 BKN018CB 08/07 Q1023 R34/290054 NOSIG
Conditions at: UKOO (ODESSA/TSENTRALN, UA) observed 2320 UTC 17 April 2019
Temperature: 8.0°C (46°F)
Dewpoint: 7.0°C (45°F) [RH = 93%]
Pressure (altimeter): 30.21 inches Hg (1023.0 mb)
Winds: from the E (80 degrees) at 16 MPH (14 knots; 7.2 m/s)
Visibility: 6 or more miles (10+ km)
Ceiling: 600 feet AGL
Clouds: broken clouds at 600 feet AGL
broken clouds at 1800 feet AGL
Weather: -SHRA  (light rain showers)

METAR text: UKOO 172300Z 08006MPS 050V110 6000 -RA BKN004 OVC011 08/08 Q1023 R34/290054 NOSIG
Conditions at: UKOO (ODESSA/TSENTRALN, UA) observed 2300 UTC 17 April 2019
Temperature: 8.0°C (46°F)
Dewpoint: 8.0°C (46°F) [RH = 100%]
Pressure (altimeter): 30.21 inches Hg (1023.0 mb)
Winds: from the E (80 degrees) at 14 MPH (12 knots; 6.2 m/s)
Visibility: 4 miles ( 6 km)
Ceiling: 400 feet AGL
Clouds: broken clouds at 400 feet AGL
overcast cloud deck at 1100 feet AGL
Weather: -RA  (light rain)

METAR text: UKOO 172230Z 08007MPS 4500 -RA BR BKN004 OVC010 08/08 Q1023 R34/290054 NOSIG
Conditions at: UKOO (ODESSA/TSENTRALN, UA) observed 2230 UTC 17 April 2019
Temperature: 8.0°C (46°F)
Dewpoint: 8.0°C (46°F) [RH = 100%]
Pressure (altimeter): 30.21 inches Hg (1023.0 mb)
Winds: from the E (80 degrees) at 16 MPH (14 knots; 7.2 m/s)
Visibility: 2.80 miles (4.51 km)
Ceiling: 400 feet AGL
Clouds: broken clouds at 400 feet AGL
overcast cloud deck at 1000 feet AGL
Weather: -RA BR  (light rain, mist)

METAR text: UKOO 172228Z 08007MPS 4600 -RA BR BKN004 OVC010 08/08 Q1023 R34/290054 NOSIG
Conditions at: UKOO (ODESSA/TSENTRALN, UA) observed 2228 UTC 17 April 2019
Temperature: 8.0°C (46°F)
Dewpoint: 8.0°C (46°F) [RH = 100%]
Pressure (altimeter): 30.21 inches Hg (1023.0 mb)
Winds: from the E (80 degrees) at 16 MPH (14 knots; 7.2 m/s)
Visibility: 2.86 miles (4.60 km)
Ceiling: 400 feet AGL
Clouds: broken clouds at 400 feet AGL
overcast cloud deck at 1000 feet AGL
Weather: -RA BR  (light rain, mist)

METAR text: UKOO 172214Z 08007MPS 050V120 9999 -RA BKN005 OVC010 08/08 Q1023 R34/290054 NOSIG
Conditions at: UKOO (ODESSA/TSENTRALN, UA) observed 2214 UTC 17 April 2019
Temperature: 8.0°C (46°F)
Dewpoint: 8.0°C (46°F) [RH = 100%]
Pressure (altimeter): 30.21 inches Hg (1023.0 mb)
Winds: from the E (80 degrees) at 16 MPH (14 knots; 7.2 m/s)
Visibility: 6 or more miles (10+ km)
Ceiling: 500 feet AGL
Clouds: broken clouds at 500 feet AGL
overcast cloud deck at 1000 feet AGL
Weather: -RA  (light rain)

METAR text: UKOO 172200Z 09007MPS 050V110 9999 -RA BKN003 OVC009 08/08 Q1022 R34/290054 NOSIG
Conditions at: UKOO (ODESSA/TSENTRALN, UA) observed 2200 UTC 17 April 2019
Temperature: 8.0°C (46°F)
Dewpoint: 8.0°C (46°F) [RH = 100%]
Pressure (altimeter): 30.18 inches Hg (1022.0 mb)
Winds: from the E (90 degrees) at 16 MPH (14 knots; 7.2 m/s)
Visibility: 6 or more miles (10+ km)
Ceiling: 300 feet AGL
Clouds: broken clouds at 300 feet AGL
overcast cloud deck at 900 feet AGL
Weather: -RA  (light rain)

METAR text: UKOO 172151Z 08008MPS 9999 -RA BKN003 OVC009 09/09 Q1022 R34/290054 NOSIG
Conditions at: UKOO (ODESSA/TSENTRALN, UA) observed 2151 UTC 17 April 2019
Temperature: 9.0°C (48°F)
Dewpoint: 9.0°C (48°F) [RH = 100%]
Pressure (altimeter): 30.18 inches Hg (1022.0 mb)
Winds: from the E (80 degrees) at 18 MPH (16 knots; 8.2 m/s)
Visibility: 6 or more miles (10+ km)
Ceiling: 300 feet AGL
Clouds: broken clouds at 300 feet AGL
overcast cloud deck at 900 feet AGL
Weather: -RA  (light rain)

METAR text: UKOO 172132Z 09006MPS 4700 -SHRA BR BKN004 BKN015CB 09/09 Q1022 R34/290054 NOSIG
Conditions at: UKOO (ODESSA/TSENTRALN, UA) observed 2132 UTC 17 April 2019
Temperature: 9.0°C (48°F)
Dewpoint: 9.0°C (48°F) [RH = 100%]
Pressure (altimeter): 30.18 inches Hg (1022.0 mb)
Winds: from the E (90 degrees) at 14 MPH (12 knots; 6.2 m/s)
Visibility: 2.92 miles (4.70 km)
Ceiling: 400 feet AGL
Clouds: broken clouds at 400 feet AGL
broken clouds at 1500 feet AGL
Weather: -SHRA BR  (light rain showers, mist)

METAR text: UKOO 172130Z 09006MPS 5000 -SHRA BR BKN004 BKN015CB 09/09 Q1022 R34/290054 NOSIG
Conditions at: UKOO (ODESSA/TSENTRALN, UA) observed 2130 UTC 17 April 2019
Temperature: 9.0°C (48°F)
Dewpoint: 9.0°C (48°F) [RH = 100%]
Pressure (altimeter): 30.18 inches Hg (1022.0 mb)
Winds: from the E (90 degrees) at 14 MPH (12 knots; 6.2 m/s)
Visibility: 3 miles ( 5 km)
Ceiling: 400 feet AGL
Clouds: broken clouds at 400 feet AGL
broken clouds at 1500 feet AGL
Weather: -SHRA BR  (light rain showers, mist)

METAR text: UKOO 172102Z 07008G14MPS 050V110 4000 -SHRA BR BKN004 BKN015CB 09/09 Q1022 R34/290054 NOSIG
Conditions at: UKOO (ODESSA/TSENTRALN, UA) observed 2102 UTC 17 April 2019
Temperature: 9.0°C (48°F)
Dewpoint: 9.0°C (48°F) [RH = 100%]
Pressure (altimeter): 30.18 inches Hg (1022.0 mb)
Winds: from the ENE (70 degrees) at 18 MPH (16 knots; 8.2 m/s)
gusting to 31 MPH (27 knots; 13.9 m/s)
Visibility: 2.49 miles (4.01 km)
Ceiling: 400 feet AGL
Clouds: broken clouds at 400 feet AGL
broken clouds at 1500 feet AGL
Weather: -SHRA BR  (light rain showers, mist)

METAR text: UKOO 172100Z 07008MPS 050V110 3800 -SHRA BR BKN004 BKN015CB 09/09 Q1022 R34/290054 NOSIG
Conditions at: UKOO (ODESSA/TSENTRALN, UA) observed 2100 UTC 17 April 2019
Temperature: 9.0°C (48°F)
Dewpoint: 9.0°C (48°F) [RH = 100%]
Pressure (altimeter): 30.18 inches Hg (1022.0 mb)
Winds: from the ENE (70 degrees) at 18 MPH (16 knots; 8.2 m/s)
Visibility: 2.36 miles (3.80 km)
Ceiling: 400 feet AGL
Clouds: broken clouds at 400 feet AGL
broken clouds at 1500 feet AGL
Weather: -SHRA BR  (light rain showers, mist)

METAR text: UKOO 172030Z 06008MPS 2100 -SHRA BR BKN004 BKN015CB 09/09 Q1021 R34/290054 NOSIG
Conditions at: UKOO (ODESSA/TSENTRALN, UA) observed 2030 UTC 17 April 2019
Temperature: 9.0°C (48°F)
Dewpoint: 9.0°C (48°F) [RH = 100%]
Pressure (altimeter): 30.15 inches Hg (1021.0 mb)
Winds: from the ENE (60 degrees) at 18 MPH (16 knots; 8.2 m/s)
Visibility: 1.30 miles (2.09 km)
Ceiling: 400 feet AGL
Clouds: broken clouds at 400 feet AGL
broken clouds at 1500 feet AGL
Weather: -SHRA BR  (light rain showers, mist)

METAR text: UKOO 172010Z 07008MPS 030V100 2700 -SHRA BR BKN004 BKN015CB 09/09 Q1021 R34/290054 NOSIG
Conditions at: UKOO (ODESSA/TSENTRALN, UA) observed 2010 UTC 17 April 2019
Temperature: 9.0°C (48°F)
Dewpoint: 9.0°C (48°F) [RH = 100%]
Pressure (altimeter): 30.15 inches Hg (1021.0 mb)
Winds: from the ENE (70 degrees) at 18 MPH (16 knots; 8.2 m/s)
Visibility: 1.68 miles (2.70 km)
Ceiling: 400 feet AGL
Clouds: broken clouds at 400 feet AGL
broken clouds at 1500 feet AGL
Weather: -SHRA BR  (light rain showers, mist)

METAR text: UKOO 172000Z 06008MPS 030V100 4000 -SHRA BR BKN004 BKN015CB 09/09 Q1021 R34/290054 NOSIG
Conditions at: UKOO (ODESSA/TSENTRALN, UA) observed 2000 UTC 17 April 2019
Temperature: 9.0°C (48°F)
Dewpoint: 9.0°C (48°F) [RH = 100%]
Pressure (altimeter): 30.15 inches Hg (1021.0 mb)
Winds: from the ENE (60 degrees) at 18 MPH (16 knots; 8.2 m/s)
Visibility: 2.49 miles (4.01 km)
Ceiling: 400 feet AGL
Clouds: broken clouds at 400 feet AGL
broken clouds at 1500 feet AGL
Weather: -SHRA BR  (light rain showers, mist)

METAR text: UKOO 171952Z 06007MPS 3900 -SHRA BR BKN003 BKN015CB 10/10 Q1021 R34/290054 NOSIG
Conditions at: UKOO (ODESSA/TSENTRALN, UA) observed 1952 UTC 17 April 2019
Temperature: 10.0°C (50°F)
Dewpoint: 10.0°C (50°F) [RH = 100%]
Pressure (altimeter): 30.15 inches Hg (1021.0 mb)
Winds: from the ENE (60 degrees) at 16 MPH (14 knots; 7.2 m/s)
Visibility: 2.42 miles (3.89 km)
Ceiling: 300 feet AGL
Clouds: broken clouds at 300 feet AGL
broken clouds at 1500 feet AGL
Weather: -SHRA BR  (light rain showers, mist)

METAR text: UKOO 171936Z 07008MPS 2100 -SHRA BR BKN003 BKN015CB 10/10 Q1021 R34/290054 NOSIG
Conditions at: UKOO (ODESSA/TSENTRALN, UA) observed 1936 UTC 17 April 2019
Temperature: 10.0°C (50°F)
Dewpoint: 10.0°C (50°F) [RH = 100%]
Pressure (altimeter): 30.15 inches Hg (1021.0 mb)
Winds: from the ENE (70 degrees) at 18 MPH (16 knots; 8.2 m/s)
Visibility: 1.30 miles (2.09 km)
Ceiling: 300 feet AGL
Clouds: broken clouds at 300 feet AGL
broken clouds at 1500 feet AGL
Weather: -SHRA BR  (light rain showers, mist)

METAR text: UKOO 171930Z 06007MPS 1900 SHRA BR BKN003 BKN015CB 10/10 Q1021 R34/290054 NOSIG
Conditions at: UKOO (ODESSA/TSENTRALN, UA) observed 1930 UTC 17 April 2019
Temperature: 10.0°C (50°F)
Dewpoint: 10.0°C (50°F) [RH = 100%]
Pressure (altimeter): 30.15 inches Hg (1021.0 mb)
Winds: from the ENE (60 degrees) at 16 MPH (14 knots; 7.2 m/s)
Visibility: 1.18 miles (1.90 km)
Ceiling: 300 feet AGL
Clouds: broken clouds at 300 feet AGL
broken clouds at 1500 feet AGL
Weather: SHRA BR  (rain showers, mist)

METAR text: UKOO 171922Z 07007MPS 030V100 1400 1200S R34/P2000N SHRA BR BKN003 BKN015CB 10/10 Q1021 R34/290054 NOSIG
Conditions at: UKOO (ODESSA/TSENTRALN, UA) observed 1922 UTC 17 April 2019
Temperature: 10.0°C (50°F)
Dewpoint: 10.0°C (50°F) [RH = 100%]
Pressure (altimeter): 30.15 inches Hg (1021.0 mb)
Winds: from the ENE (70 degrees) at 16 MPH (14 knots; 7.2 m/s)
Visibility: 0.87 miles (1.40 km)
Ceiling: 300 feet AGL
Clouds: broken clouds at 300 feet AGL
broken clouds at 1500 feet AGL
Weather: SHRA BR  (rain showers, mist)

METAR text: UKOO 171919Z 07008MPS 1700 1100S R34/P2000N SHRA BR BKN003 BKN015CB 10/10 Q1021 R34/290054 NOSIG
Conditions at: UKOO (ODESSA/TSENTRALN, UA) observed 1919 UTC 17 April 2019
Temperature: 10.0°C (50°F)
Dewpoint: 10.0°C (50°F) [RH = 100%]
Pressure (altimeter): 30.15 inches Hg (1021.0 mb)
Winds: from the ENE (70 degrees) at 18 MPH (16 knots; 8.2 m/s)
Visibility: 1.06 miles (1.71 km)
Ceiling: 300 feet AGL
Clouds: broken clouds at 300 feet AGL
broken clouds at 1500 feet AGL
Weather: SHRA BR  (rain showers, mist)

METAR text: UKOO 171906Z 07007MPS 040V110 1400 1200S R34/P2000N SHRA BR BKN003 BKN015CB 10/10 Q1021 R34/290054 NOSIG
Conditions at: UKOO (ODESSA/TSENTRALN, UA) observed 1906 UTC 17 April 2019
Temperature: 10.0°C (50°F)
Dewpoint: 10.0°C (50°F) [RH = 100%]
Pressure (altimeter): 30.15 inches Hg (1021.0 mb)
Winds: from the ENE (70 degrees) at 16 MPH (14 knots; 7.2 m/s)
Visibility: 0.87 miles (1.40 km)
Ceiling: 300 feet AGL
Clouds: broken clouds at 300 feet AGL
broken clouds at 1500 feet AGL
Weather: SHRA BR  (rain showers, mist)

METAR text: UKOO 171905Z 07007MPS 040V110 1900 1200S R34/P2000N SHRA BR BKN003 BKN015CB 10/10 Q1021 R34/290054 NOSIG
Conditions at: UKOO (ODESSA/TSENTRALN, UA) observed 1905 UTC 17 April 2019
Temperature: 10.0°C (50°F)
Dewpoint: 10.0°C (50°F) [RH = 100%]
Pressure (altimeter): 30.15 inches Hg (1021.0 mb)
Winds: from the ENE (70 degrees) at 16 MPH (14 knots; 7.2 m/s)
Visibility: 1.18 miles (1.90 km)
Ceiling: 300 feet AGL
Clouds: broken clouds at 300 feet AGL
broken clouds at 1500 feet AGL
Weather: SHRA BR  (rain showers, mist)

METAR text: UKOO 171900Z 06007MPS 030V110 2300 -RA BR BKN003 OVC007 10/10 Q1021 R34/290054 NOSIG
Conditions at: UKOO (ODESSA/TSENTRALN, UA) observed 1900 UTC 17 April 2019
Temperature: 10.0°C (50°F)
Dewpoint: 10.0°C (50°F) [RH = 100%]
Pressure (altimeter): 30.15 inches Hg (1021.0 mb)
Winds: from the ENE (60 degrees) at 16 MPH (14 knots; 7.2 m/s)
Visibility: 1.43 miles (2.30 km)
Ceiling: 300 feet AGL
Clouds: broken clouds at 300 feet AGL
overcast cloud deck at 700 feet AGL
Weather: -RA BR  (light rain, mist)

METAR text: UKOO 171854Z 06007MPS 020V090 2100 -RA BR BKN003 OVC008 10/10 Q1021 R34/290054 NOSIG
Conditions at: UKOO (ODESSA/TSENTRALN, UA) observed 1854 UTC 17 April 2019
Temperature: 10.0°C (50°F)
Dewpoint: 10.0°C (50°F) [RH = 100%]
Pressure (altimeter): 30.15 inches Hg (1021.0 mb)
Winds: from the ENE (60 degrees) at 16 MPH (14 knots; 7.2 m/s)
Visibility: 1.30 miles (2.09 km)
Ceiling: 300 feet AGL
Clouds: broken clouds at 300 feet AGL
overcast cloud deck at 800 feet AGL
Weather: -RA BR  (light rain, mist)

METAR text: UKOO 171853Z 06007MPS 020V090 2000 RA BR BKN003 OVC008 10/10 Q1021 R34/290054 NOSIG
Conditions at: UKOO (ODESSA/TSENTRALN, UA) observed 1853 UTC 17 April 2019
Temperature: 10.0°C (50°F)
Dewpoint: 10.0°C (50°F) [RH = 100%]
Pressure (altimeter): 30.15 inches Hg (1021.0 mb)
Winds: from the ENE (60 degrees) at 16 MPH (14 knots; 7.2 m/s)
Visibility: 1.24 miles (2.00 km)
Ceiling: 300 feet AGL
Clouds: broken clouds at 300 feet AGL
overcast cloud deck at 800 feet AGL
Weather: RA BR  (moderate rain, mist)

METAR text: UKOO 171830Z 05004MPS 010V100 1300 1200S R34/P2000N RA BR BKN004 OVC011 10/10 Q1020 R34/290054 NOSIG
Conditions at: UKOO (ODESSA/TSENTRALN, UA) observed 1830 UTC 17 April 2019
Temperature: 10.0°C (50°F)
Dewpoint: 10.0°C (50°F) [RH = 100%]
Pressure (altimeter): 30.12 inches Hg (1020.0 mb)
Winds: from the NE (50 degrees) at 9 MPH (8 knots; 4.1 m/s)
Visibility: 0.81 miles (1.30 km)
Ceiling: 400 feet AGL
Clouds: broken clouds at 400 feet AGL
overcast cloud deck at 1100 feet AGL
Weather: RA BR  (moderate rain, mist)

METAR text: UKOO 171823Z 03003MPS 1400 1200S R34/P2000N RA BR BKN004 OVC014 11/10 Q1020 R34/290054 NOSIG
Conditions at: UKOO (ODESSA/TSENTRALN, UA) observed 1823 UTC 17 April 2019
Temperature: 11.0°C (52°F)
Dewpoint: 10.0°C (50°F) [RH = 94%]
Pressure (altimeter): 30.12 inches Hg (1020.0 mb)
Winds: from the NNE (30 degrees) at 7 MPH (6 knots; 3.1 m/s)
Visibility: 0.87 miles (1.40 km)
Ceiling: 400 feet AGL
Clouds: broken clouds at 400 feet AGL
overcast cloud deck at 1400 feet AGL
Weather: RA BR  (moderate rain, mist)

METAR text: UKOO 171814Z 02003MPS 1800 1400S R34/P2000N RA BR BKN004 OVC014 11/10 Q1020 R34/290054 NOSIG
Conditions at: UKOO (ODESSA/TSENTRALN, UA) observed 1814 UTC 17 April 2019
Temperature: 11.0°C (52°F)
Dewpoint: 10.0°C (50°F) [RH = 94%]
Pressure (altimeter): 30.12 inches Hg (1020.0 mb)
Winds: from the NNE (20 degrees) at 7 MPH (6 knots; 3.1 m/s)
Visibility: 1.12 miles (1.80 km)
Ceiling: 400 feet AGL
Clouds: broken clouds at 400 feet AGL
overcast cloud deck at 1400 feet AGL
Weather: RA BR  (moderate rain, mist)

METAR text: UKOO 171800Z 03005MPS 360V060 1900 RA BR BKN005 OVC018 11/10 Q1020 R34/090060 NOSIG
Conditions at: UKOO (ODESSA/TSENTRALN, UA) observed 1800 UTC 17 April 2019
Temperature: 11.0°C (52°F)
Dewpoint: 10.0°C (50°F) [RH = 94%]
Pressure (altimeter): 30.12 inches Hg (1020.0 mb)
Winds: from the NNE (30 degrees) at 12 MPH (10 knots; 5.1 m/s)
Visibility: 1.18 miles (1.90 km)
Ceiling: 500 feet AGL
Clouds: broken clouds at 500 feet AGL
overcast cloud deck at 1800 feet AGL
Weather: RA BR  (moderate rain, mist)

METAR text: UKOO 171758Z 03005MPS 2400 -RA BR BKN007 OVC018 11/10 Q1020 R34/090060 NOSIG
Conditions at: UKOO (ODESSA/TSENTRALN, UA) observed 1758 UTC 17 April 2019
Temperature: 11.0°C (52°F)
Dewpoint: 10.0°C (50°F) [RH = 94%]
Pressure (altimeter): 30.12 inches Hg (1020.0 mb)
Winds: from the NNE (30 degrees) at 12 MPH (10 knots; 5.1 m/s)
Visibility: 1.49 miles (2.40 km)
Ceiling: 700 feet AGL
Clouds: broken clouds at 700 feet AGL
overcast cloud deck at 1800 feet AGL
Weather: -RA BR  (light rain, mist)

METAR text: UKOO 171757Z 03005MPS 3300 -RA BR BKN007 OVC018 11/10 Q1020 R34/090060 NOSIG
Conditions at: UKOO (ODESSA/TSENTRALN, UA) observed 1757 UTC 17 April 2019
Temperature: 11.0°C (52°F)
Dewpoint: 10.0°C (50°F) [RH = 94%]
Pressure (altimeter): 30.12 inches Hg (1020.0 mb)
Winds: from the NNE (30 degrees) at 12 MPH (10 knots; 5.1 m/s)
Visibility: 2.05 miles (3.30 km)
Ceiling: 700 feet AGL
Clouds: broken clouds at 700 feet AGL
overcast cloud deck at 1800 feet AGL
Weather: -RA BR  (light rain, mist)

METAR text: UKOO 171750Z 02005MPS 9999 BKN011 OVC022 11/09 Q1020 R34/090060 NOSIG
Conditions at: UKOO (ODESSA/TSENTRALN, UA) observed 1750 UTC 17 April 2019
Temperature: 11.0°C (52°F)
Dewpoint: 9.0°C (48°F) [RH = 87%]
Pressure (altimeter): 30.12 inches Hg (1020.0 mb)
Winds: from the NNE (20 degrees) at 12 MPH (10 knots; 5.1 m/s)
Visibility: 6 or more miles (10+ km)
Ceiling: 1100 feet AGL
Clouds: broken clouds at 1100 feet AGL
overcast cloud deck at 2200 feet AGL
Weather: no significant weather observed at this time

METAR text: UKOO 171730Z 02004MPS 9999 BKN027 OVC033 12/09 Q1020 R34/090060 NOSIG
Conditions at: UKOO (ODESSA/TSENTRALN, UA) observed 1730 UTC 17 April 2019
Temperature: 12.0°C (54°F)
Dewpoint: 9.0°C (48°F) [RH = 82%]
Pressure (altimeter): 30.12 inches Hg (1020.0 mb)
Winds: from the NNE (20 degrees) at 9 MPH (8 knots; 4.1 m/s)
Visibility: 6 or more miles (10+ km)
Ceiling: 2700 feet AGL
Clouds: broken clouds at 2700 feet AGL
overcast cloud deck at 3300 feet AGL
Weather: no significant weather observed at this time

METAR text: UKOO 171700Z 03004MPS 9999 SCT019 OVC036 12/08 Q1019 R16/090060 NOSIG
Conditions at: UKOO (ODESSA/TSENTRALN, UA) observed 1700 UTC 17 April 2019
Temperature: 12.0°C (54°F)
Dewpoint: 8.0°C (46°F) [RH = 76%]
Pressure (altimeter): 30.09 inches Hg (1019.0 mb)
Winds: from the NNE (30 degrees) at 9 MPH (8 knots; 4.1 m/s)
Visibility: 6 or more miles (10+ km)
Ceiling: 3600 feet AGL
Clouds: scattered clouds at 1900 feet AGL
overcast cloud deck at 3600 feet AGL
Weather: no significant weather observed at this time

METAR text: UKOO 171630Z 04004MPS 9999 SCT030 BKN046 12/07 Q1019 R16/090060 NOSIG
Conditions at: UKOO (ODESSA/TSENTRALN, UA) observed 1630 UTC 17 April 2019
Temperature: 12.0°C (54°F)
Dewpoint: 7.0°C (45°F) [RH = 71%]
Pressure (altimeter): 30.09 inches Hg (1019.0 mb)
Winds: from the NE (40 degrees) at 9 MPH (8 knots; 4.1 m/s)
Visibility: 6 or more miles (10+ km)
Ceiling: 4600 feet AGL
Clouds: scattered clouds at 3000 feet AGL
broken clouds at 4600 feet AGL
Weather: no significant weather observed at this time

METAR text: UKOO 171600Z 02002MPS 300V070 9999 SCT029 BKN040 13/07 Q1019 R16/090060 NOSIG
Conditions at: UKOO (ODESSA/TSENTRALN, UA) observed 1600 UTC 17 April 2019
Temperature: 13.0°C (55°F)
Dewpoint: 7.0°C (45°F) [RH = 67%]
Pressure (altimeter): 30.09 inches Hg (1019.0 mb)
Winds: from the NNE (20 degrees) at 5 MPH (4 knots; 2.1 m/s)
Visibility: 6 or more miles (10+ km)
Ceiling: 4000 feet AGL
Clouds: scattered clouds at 2900 feet AGL
broken clouds at 4000 feet AGL
Weather: no significant weather observed at this time

METAR text: UKOO 171530Z 04003MPS 360V090 9999 FEW036CB BKN043 13/07 Q1019 R16/090060 NOSIG
Conditions at: UKOO (ODESSA/TSENTRALN, UA) observed 1530 UTC 17 April 2019
Temperature: 13.0°C (55°F)
Dewpoint: 7.0°C (45°F) [RH = 67%]
Pressure (altimeter): 30.09 inches Hg (1019.0 mb)
Winds: from the NE (40 degrees) at 7 MPH (6 knots; 3.1 m/s)
Visibility: 6 or more miles (10+ km)
Ceiling: 4300 feet AGL
Clouds: few clouds at 3600 feet AGL
broken clouds at 4300 feet AGL
Weather: no significant weather observed at this time

METAR text: UKOO 171500Z 05004MPS 9999 FEW033CB 13/06 Q1019 R16/090060 NOSIG
Conditions at: UKOO (ODESSA/TSENTRALN, UA) observed 1500 UTC 17 April 2019
Temperature: 13.0°C (55°F)
Dewpoint: 6.0°C (43°F) [RH = 62%]
Pressure (altimeter): 30.09 inches Hg (1019.0 mb)
Winds: from the NE (50 degrees) at 9 MPH (8 knots; 4.1 m/s)
Visibility: 6 or more miles (10+ km)
Ceiling: at least 12,000 feet AGL
Clouds: few clouds at 3300 feet AGL
Weather: no significant weather observed at this time

METAR text: UKOO 171430Z 07003MPS 030V100 9999 SCT036 13/06 Q1019 R16/090060 NOSIG
Conditions at: UKOO (ODESSA/TSENTRALN, UA) observed 1430 UTC 17 April 2019
Temperature: 13.0°C (55°F)
Dewpoint: 6.0°C (43°F) [RH = 62%]
Pressure (altimeter): 30.09 inches Hg (1019.0 mb)
Winds: from the ENE (70 degrees) at 7 MPH (6 knots; 3.1 m/s)
Visibility: 6 or more miles (10+ km)
Ceiling: at least 12,000 feet AGL
Clouds: scattered clouds at 3600 feet AGL
Weather: no significant weather observed at this time

METAR text: UKOO 171400Z 03003MPS 350V070 9999 FEW036 13/05 Q1019 R16/090060 NOSIG
Conditions at: UKOO (ODESSA/TSENTRALN, UA) observed 1400 UTC 17 April 2019
Temperature: 13.0°C (55°F)
Dewpoint: 5.0°C (41°F) [RH = 58%]
Pressure (altimeter): 30.09 inches Hg (1019.0 mb)
Winds: from the NNE (30 degrees) at 7 MPH (6 knots; 3.1 m/s)
Visibility: 6 or more miles (10+ km)
Ceiling: at least 12,000 feet AGL
Clouds: few clouds at 3600 feet AGL
Weather: no significant weather observed at this time

METAR text: UKOO 171330Z 03004MPS 350V060 9999 SCT032 13/05 Q1018 R16/090060 NOSIG
Conditions at: UKOO (ODESSA/TSENTRALN, UA) observed 1330 UTC 17 April 2019
Temperature: 13.0°C (55°F)
Dewpoint: 5.0°C (41°F) [RH = 58%]
Pressure (altimeter): 30.06 inches Hg (1018.0 mb)
Winds: from the NNE (30 degrees) at 9 MPH (8 knots; 4.1 m/s)
Visibility: 6 or more miles (10+ km)
Ceiling: at least 12,000 feet AGL
Clouds: scattered clouds at 3200 feet AGL
Weather: no significant weather observed at this time

METAR text: UKOO 171300Z 07002MPS 020V130 9999 FEW032 12/06 Q1018 R16/090060 NOSIG
Conditions at: UKOO (ODESSA/TSENTRALN, UA) observed 1300 UTC 17 April 2019
Temperature: 12.0°C (54°F)
Dewpoint: 6.0°C (43°F) [RH = 67%]
Pressure (altimeter): 30.06 inches Hg (1018.0 mb)
Winds: from the ENE (70 degrees) at 5 MPH (4 knots; 2.1 m/s)
Visibility: 6 or more miles (10+ km)
Ceiling: at least 12,000 feet AGL
Clouds: few clouds at 3200 feet AGL
Weather: no significant weather observed at this time

METAR text: UKOO 171230Z 07002MPS 010V180 9999 SCT032 13/05 Q1018 R16/090060 NOSIG
Conditions at: UKOO (ODESSA/TSENTRALN, UA) observed 1230 UTC 17 April 2019
Temperature: 13.0°C (55°F)
Dewpoint: 5.0°C (41°F) [RH = 58%]
Pressure (altimeter): 30.06 inches Hg (1018.0 mb)
Winds: from the ENE (70 degrees) at 5 MPH (4 knots; 2.1 m/s)
Visibility: 6 or more miles (10+ km)
Ceiling: at least 12,000 feet AGL
Clouds: scattered clouds at 3200 feet AGL
Weather: no significant weather observed at this time

METAR text: UKOO 171200Z 07002MPS 330V120 9999 SCT032 12/05 Q1018 R16/090060 NOSIG
Conditions at: UKOO (ODESSA/TSENTRALN, UA) observed 1200 UTC 17 April 2019
Temperature: 12.0°C (54°F)
Dewpoint: 5.0°C (41°F) [RH = 62%]
Pressure (altimeter): 30.06 inches Hg (1018.0 mb)
Winds: from the ENE (70 degrees) at 5 MPH (4 knots; 2.1 m/s)
Visibility: 6 or more miles (10+ km)
Ceiling: at least 12,000 feet AGL
Clouds: scattered clouds at 3200 feet AGL
Weather: no significant weather observed at this time

METAR text: UKOO 171130Z 07003MPS 040V110 9999 BKN028 12/06 Q1018 R16/090060 NOSIG
Conditions at: UKOO (ODESSA/TSENTRALN, UA) observed 1130 UTC 17 April 2019
Temperature: 12.0°C (54°F)
Dewpoint: 6.0°C (43°F) [RH = 67%]
Pressure (altimeter): 30.06 inches Hg (1018.0 mb)
Winds: from the ENE (70 degrees) at 7 MPH (6 knots; 3.1 m/s)
Visibility: 6 or more miles (10+ km)
Ceiling: 2800 feet AGL
Clouds: broken clouds at 2800 feet AGL
Weather: no significant weather observed at this time

METAR text: UKOO 171100Z 08002MPS 050V170 9999 BKN027 11/05 Q1018 R34/090060 NOSIG
Conditions at: UKOO (ODESSA/TSENTRALN, UA) observed 1100 UTC 17 April 2019
Temperature: 11.0°C (52°F)
Dewpoint: 5.0°C (41°F) [RH = 66%]
Pressure (altimeter): 30.06 inches Hg (1018.0 mb)
Winds: from the E (80 degrees) at 5 MPH (4 knots; 2.1 m/s)
Visibility: 6 or more miles (10+ km)
Ceiling: 2700 feet AGL
Clouds: broken clouds at 2700 feet AGL
Weather: no significant weather observed at this time

METAR text: UKOO 171030Z 05003MPS 9999 FEW023CB SCT031 11/06 Q1018 R34/090060 NOSIG
Conditions at: UKOO (ODESSA/TSENTRALN, UA) observed 1030 UTC 17 April 2019
Temperature: 11.0°C (52°F)
Dewpoint: 6.0°C (43°F) [RH = 71%]
Pressure (altimeter): 30.06 inches Hg (1018.0 mb)
Winds: from the NE (50 degrees) at 7 MPH (6 knots; 3.1 m/s)
Visibility: 6 or more miles (10+ km)
Ceiling: at least 12,000 feet AGL
Clouds: few clouds at 2300 feet AGL
scattered clouds at 3100 feet AGL
Weather: no significant weather observed at this time

METAR text: UKOO 171000Z 09004MPS 9999 FEW022CB SCT029 11/06 Q1017 R34/090060 NOSIG
Conditions at: UKOO (ODESSA/TSENTRALN, UA) observed 1000 UTC 17 April 2019
Temperature: 11.0°C (52°F)
Dewpoint: 6.0°C (43°F) [RH = 71%]
Pressure (altimeter): 30.03 inches Hg (1017.0 mb)
Winds: from the E (90 degrees) at 9 MPH (8 knots; 4.1 m/s)
Visibility: 6 or more miles (10+ km)
Ceiling: at least 12,000 feet AGL
Clouds: few clouds at 2200 feet AGL
scattered clouds at 2900 feet AGL
Weather: no significant weather observed at this time

METAR text: UKOO 170930Z 07003MPS 040V110 9999 SCT020 SCT031CB 10/05 Q1017 R34/090060 NOSIG
Conditions at: UKOO (ODESSA/TSENTRALN, UA) observed 0930 UTC 17 April 2019
Temperature: 10.0°C (50°F)
Dewpoint: 5.0°C (41°F) [RH = 71%]
Pressure (altimeter): 30.03 inches Hg (1017.0 mb)
Winds: from the ENE (70 degrees) at 7 MPH (6 knots; 3.1 m/s)
Visibility: 6 or more miles (10+ km)
Ceiling: at least 12,000 feet AGL
Clouds: scattered clouds at 2000 feet AGL
scattered clouds at 3100 feet AGL
Weather: no significant weather observed at this time

METAR text: UKOO 170900Z 11003MPS 030V150 9999 FEW018 SCT027 11/06 Q1017 R34/090060 NOSIG
Conditions at: UKOO (ODESSA/TSENTRALN, UA) observed 0900 UTC 17 April 2019
Temperature: 11.0°C (52°F)
Dewpoint: 6.0°C (43°F) [RH = 71%]
Pressure (altimeter): 30.03 inches Hg (1017.0 mb)
Winds: from the ESE (110 degrees) at 7 MPH (6 knots; 3.1 m/s)
Visibility: 6 or more miles (10+ km)
Ceiling: at least 12,000 feet AGL
Clouds: few clouds at 1800 feet AGL
scattered clouds at 2700 feet AGL
Weather: no significant weather observed at this time

METAR text: UKOO 170830Z 11001MPS 9999 FEW017 BKN043 09/07 Q1017 R34/090060 NOSIG
Conditions at: UKOO (ODESSA/TSENTRALN, UA) observed 0830 UTC 17 April 2019
Temperature: 9.0°C (48°F)
Dewpoint: 7.0°C (45°F) [RH = 87%]
Pressure (altimeter): 30.03 inches Hg (1017.0 mb)
Winds: from the ESE (110 degrees) at 2 MPH (2 knots; 1.0 m/s)
Visibility: 6 or more miles (10+ km)
Ceiling: 4300 feet AGL
Clouds: few clouds at 1700 feet AGL
broken clouds at 4300 feet AGL
Weather: no significant weather observed at this time

METAR text: UKOO 170800Z VRB01MPS 9999 FEW011 BKN036 09/07 Q1017 R16/090060 NOSIG
Conditions at: UKOO (ODESSA/TSENTRALN, UA) observed 0800 UTC 17 April 2019
Temperature: 9.0°C (48°F)
Dewpoint: 7.0°C (45°F) [RH = 87%]
Pressure (altimeter): 30.03 inches Hg (1017.0 mb)
Winds: variable direction winds at 2 MPH (2 knots; 1.0 m/s)
Visibility: 6 or more miles (10+ km)
Ceiling: 3600 feet AGL
Clouds: few clouds at 1100 feet AGL
broken clouds at 3600 feet AGL
Weather: no significant weather observed at this time

METAR text: UKOO 170730Z 08002MPS 9999 SCT011 OVC036 08/06 Q1017 R16/190058 NOSIG
Conditions at: UKOO (ODESSA/TSENTRALN, UA) observed 0730 UTC 17 April 2019
Temperature: 8.0°C (46°F)
Dewpoint: 6.0°C (43°F) [RH = 87%]
Pressure (altimeter): 30.03 inches Hg (1017.0 mb)
Winds: from the E (80 degrees) at 5 MPH (4 knots; 2.1 m/s)
Visibility: 6 or more miles (10+ km)
Ceiling: 3600 feet AGL
Clouds: scattered clouds at 1100 feet AGL
overcast cloud deck at 3600 feet AGL
Weather: no significant weather observed at this time

METAR text: UKOO 170700Z 06001MPS 9999 SCT008 OVC036 08/07 Q1016 R16/190058 NOSIG
Conditions at: UKOO (ODESSA/TSENTRALN, UA) observed 0700 UTC 17 April 2019
Temperature: 8.0°C (46°F)
Dewpoint: 7.0°C (45°F) [RH = 93%]
Pressure (altimeter): 30.00 inches Hg (1016.0 mb)
Winds: from the ENE (60 degrees) at 2 MPH (2 knots; 1.0 m/s)
Visibility: 6 or more miles (10+ km)
Ceiling: 3600 feet AGL
Clouds: scattered clouds at 800 feet AGL
overcast cloud deck at 3600 feet AGL
Weather: no significant weather observed at this time

Forecast for: UKOO (ODESSA/TSENTRALN, UA)
Text: TAF UKOO 181708Z 1818/1918 02003MPS 2100 BR BKN007 SCT015CB TX13/1912Z TN03/1904Z
Forecast period: 1800 UTC 18 April 2019 to 0500 UTC 19 April 2019
Forecast type: FROM: standard forecast or significant change
Winds: from the NNE (20 degrees) at 7 MPH (6 knots; 3.1 m/s)
Visibility: 1.30 miles (2.09 km)
Ceiling: 700 feet AGL
Clouds: broken clouds at 700 feet AGL
scattered clouds at 1500 feet AGL
Weather: BR  (mist)
Text: PROB40
Forecast period: 2000 UTC 18 April 2019 to 0400 UTC 19 April 2019
Forecast type: TEMPORARY: The following changes expected for less than half the time period
Visibility: 0.19 miles (0.31 km)
Ceiling: indefinite ceiling with vertical visibility of 200 feet AGL
Clouds: obscured sky
Weather: FG  (fog)
Text: TEMPO 1820/1904 0300 FG VV002
Forecast period: 0500 to 1800 UTC 19 April 2019
Forecast type: BECOMING: Conditions expected to become as follows by 0600 UTC 19 April 2019
Winds: from the E (90 degrees) at 7 MPH (6 knots; 3.1 m/s)
Visibility: 4 miles (6 km)
Ceiling: 700 feet AGL
Clouds: broken clouds at 700 feet AGL
scattered clouds at 1500 feet AGL
Weather: NSW  (no significant weather)